METAR AND TAF INFORMATION
METAR FOR LIEO
ADDS - METARS form results

(1458 UTC 15 September 2019)
Data provider http://aviationweather.gov/metar/data/
 
METAR text: LIEO 151450Z 09006KT 050V130 CAVOK 28/18 Q1021
Conditions at: LIEO (OLBIA/COSTA SMER, IT) observed 1450 UTC 15 September 2019
Temperature: 28.0°C (82°F)
Dewpoint: 18.0°C (64°F) [RH = 55%]
Pressure (altimeter): 30.15 inches Hg (1021.0 mb)
Winds: from the E (90 degrees) at 7 MPH (6 knots; 3.1 m/s)
Visibility: 6 or more miles (10+ km)
Ceiling: ceiling and visibility are OK
Clouds: unknown
Weather: no significant weather observed at this time

METAR text: LIEO 151420Z 09007KT 040V120 CAVOK 28/18 Q1021
Conditions at: LIEO (OLBIA/COSTA SMER, IT) observed 1420 UTC 15 September 2019
Temperature: 28.0°C (82°F)
Dewpoint: 18.0°C (64°F) [RH = 55%]
Pressure (altimeter): 30.15 inches Hg (1021.0 mb)
Winds: from the E (90 degrees) at 8 MPH (7 knots; 3.6 m/s)
Visibility: 6 or more miles (10+ km)
Ceiling: ceiling and visibility are OK
Clouds: unknown
Weather: no significant weather observed at this time

Forecast for: LIEO (OLBIA/COSTA SMER, IT)
Text: TAF LIEO 151100Z 1512/1612 07010KT CAVOK
Forecast period: 1200 to 1800 UTC 15 September 2019
Forecast type: FROM: standard forecast or significant change
Winds: from the ENE (70 degrees) at 12 MPH (10 knots; 5.1 m/s)
Visibility: 6 or more miles 10+ km)
Ceiling: unknown
Clouds: missing
Weather: NSW  (no significant weather)
Text: BECMG 1518/1520 VRB04KT
Forecast period: 1800 UTC 15 September 2019 to 1000 UTC 16 September 2019
Forecast type: BECOMING: Conditions expected to become as follows by 2000 UTC 15 September 2019
Winds: variable direction winds at 5 MPH (4 knots; 2.1 m/s)
Visibility: 6 or more miles 10+ km)
Ceiling: unknown
Clouds: missing
Weather: NSW  (no significant weather)
Text: BECMG 1610/1612 08010KT
Forecast period: 1000 to 1200 UTC 16 September 2019
Forecast type: BECOMING: Conditions expected to become as follows by 1200 UTC 16 September 2019
Winds: from the E (80 degrees) at 12 MPH (10 knots; 5.1 m/s)
Visibility: 6 or more miles 10+ km)
Ceiling: unknown
Clouds: missing
Weather: NSW  (no significant weather)

 AIRPORT MAP

 RUNWAY INFORMATION
Runway 05 Runway length 8025 ft Runway width 148 ft
Runway elevation 35 ft Runway displaced threshold 805 ft Runway heading 53
Runway 23 Runway length 8025 ft Runway width 148 ft
Runway elevation 19 ft Runway displaced threshold 495 ft Runway heading 233

 AIRPORT FREQUENCIES
Type APP Name OLBIA RADA Frequency 125.95 MHZ
Type ATIS Name ATIS Frequency 113.9 MHZ
Type TWR Name OLBIA TWR Frequency 118.975 MHZ

 AIRPORT NEAR NAVIGATION AIDS
Type VOR-DME Name Olbia Costa Smeralda Frequency 113900 KHZ
Type NDB Name Olbia Costa Smeralda Frequency 357 KHZ